createdAt,value
2023-02-25T00:01:36.233Z,97280.03
2023-02-25T00:04:02.715Z,97285.00
2023-02-25T00:06:29.254Z,97285.25
2023-02-25T00:08:56.004Z,97280.50
2023-02-25T00:11:25.725Z,97282.81
2023-02-25T00:13:52.658Z,97301.47
2023-02-25T00:16:22.912Z,97296.25
2023-02-25T00:18:58.437Z,97289.94
2023-02-25T00:21:29.145Z,97291.03
2023-02-25T00:24:00.114Z,97281.38
2023-02-25T00:26:31.062Z,97293.44
2023-02-25T00:28:58.001Z,97290.56
2023-02-25T00:31:25.909Z,97290.75
2023-02-25T00:33:53.590Z,97289.44
2023-02-25T00:36:26.248Z,97293.81
2023-02-25T00:38:57.139Z,97298.38
2023-02-25T00:41:27.957Z,97298.69
2023-02-25T00:44:00.645Z,97297.84
2023-02-25T00:46:29.352Z,97297.28
2023-02-25T00:48:55.925Z,97298.38
2023-02-25T00:51:26.392Z,97305.72
2023-02-25T00:53:55.748Z,97302.00
2023-02-25T00:56:24.688Z,97296.78
2023-02-25T00:58:53.050Z,97297.19
2023-02-25T01:01:30.249Z,97296.63
2023-02-25T01:03:58.324Z,97298.31
2023-02-25T01:06:27.782Z,97296.91
2023-02-25T01:08:54.876Z,97298.59
2023-02-25T01:11:29.757Z,97297.84
2023-02-25T01:14:03.944Z,97298.28
2023-02-25T01:16:32.652Z,97294.19
2023-02-25T01:19:05.936Z,97288.97
2023-02-25T01:21:38.077Z,97306.03
2023-02-25T01:24:19.632Z,97301.97
2023-02-25T01:26:48.350Z,97291.25
2023-02-25T01:29:19.045Z,97291.13
2023-02-25T01:31:46.414Z,97306.94
2023-02-25T01:34:17.607Z,97294.97
2023-02-25T01:36:45.694Z,97300.34
2023-02-25T01:39:15.837Z,97302.22
2023-02-25T01:41:46.261Z,97306.88
2023-02-25T01:44:17.683Z,97306.78
2023-02-25T01:46:49.898Z,97302.22
2023-02-25T01:49:29.959Z,97299.34
2023-02-25T01:52:23.622Z,97308.19
2023-02-25T01:54:58.135Z,97303.59
2023-02-25T01:57:28.806Z,97309.91
2023-02-25T01:59:55.598Z,97310.03
2023-02-25T02:02:27.447Z,97301.59
2023-02-25T02:04:56.008Z,97312.16
2023-02-25T02:07:24.757Z,97309.84
2023-02-25T02:09:58.290Z,97315.59
2023-02-25T02:12:35.936Z,97312.44
2023-02-25T02:15:10.950Z,97303.50
2023-02-25T02:18:03.123Z,97314.56
2023-02-25T02:21:10.365Z,97306.09
2023-02-25T02:24:35.966Z,97305.16
2023-02-25T02:27:10.683Z,97300.28
2023-02-25T02:30:18.821Z,97298.44
2023-02-25T02:33:17.501Z,97301.41
2023-02-25T02:36:05.949Z,97313.78
2023-02-25T02:39:18.140Z,97294.72
2023-02-25T02:42:12.496Z,97295.47
2023-02-25T02:45:01.509Z,97302.78
2023-02-25T02:47:42.614Z,97310.72
2023-02-25T02:50:29.443Z,97306.28
2023-02-25T02:53:03.968Z,97312.34
2023-02-25T02:55:41.082Z,97308.06
2023-02-25T02:58:17.204Z,97308.81
2023-02-25T03:00:50.433Z,97308.13
2023-02-25T03:03:29.965Z,97309.66
2023-02-25T03:05:56.458Z,97312.56
2023-02-25T03:08:29.685Z,97306.34
2023-02-25T03:10:56.411Z,97302.97
2023-02-25T03:13:22.980Z,97308.34
2023-02-25T03:15:52.595Z,97309.66
2023-02-25T03:18:34.667Z,97298.00
2023-02-25T03:21:12.786Z,97309.66
2023-02-25T03:23:42.883Z,97306.13
2023-02-25T03:26:23.144Z,97304.63
2023-02-25T03:28:50.305Z,97308.34
2023-02-25T03:31:41.036Z,97311.34
2023-02-25T03:34:19.208Z,97311.16
2023-02-25T03:36:59.740Z,97316.16
2023-02-25T03:39:35.975Z,97312.19
2023-02-25T03:42:05.777Z,97326.97
2023-02-25T03:44:45.413Z,97318.94
2023-02-25T03:47:14.184Z,97320.06
2023-02-25T03:49:59.054Z,97320.91
2023-02-25T03:52:27.949Z,97324.72
2023-02-25T03:54:57.586Z,97333.03
2023-02-25T03:57:33.640Z,97325.28
2023-02-25T04:00:00.150Z,97325.38
2023-02-25T04:02:33.628Z,97330.50
2023-02-25T04:05:00.257Z,97336.91
2023-02-25T04:07:27.083Z,97337.47
2023-02-25T04:09:53.588Z,97344.19
2023-02-25T04:12:20.096Z,97334.50
2023-02-25T04:14:46.541Z,97335.16
2023-02-25T04:17:12.986Z,97335.72
2023-02-25T04:19:39.550Z,97323.69
2023-02-25T04:22:08.021Z,97331.31
2023-02-25T04:24:34.561Z,97342.28
2023-02-25T04:27:02.464Z,97334.28
2023-02-25T04:29:29.699Z,97338.50
2023-02-25T04:31:56.823Z,97347.31
2023-02-25T04:34:24.562Z,97343.78
2023-02-25T04:36:51.938Z,97345.03
2023-02-25T04:39:19.472Z,97354.63
2023-02-25T04:41:46.010Z,97354.25
2023-02-25T04:44:12.602Z,97351.03
2023-02-25T04:46:43.099Z,97358.41
2023-02-25T04:49:10.561Z,97357.38
2023-02-25T04:51:39.263Z,97352.56
2023-02-25T04:54:06.489Z,97350.69
2023-02-25T04:56:32.975Z,97354.13
2023-02-25T04:58:59.582Z,97343.59
2023-02-25T05:01:26.160Z,97355.75
2023-02-25T05:03:56.873Z,97359.69
2023-02-25T05:06:25.804Z,97350.56
2023-02-25T05:08:52.480Z,97345.66
2023-02-25T05:11:20.416Z,97352.91
2023-02-25T05:13:47.562Z,97350.03
2023-02-25T05:16:16.952Z,97354.84
2023-02-25T05:18:46.543Z,97351.56
2023-02-25T05:21:17.787Z,97348.66
2023-02-25T05:23:46.514Z,97349.75
2023-02-25T05:26:16.353Z,97343.44
2023-02-25T05:28:45.624Z,97345.66
2023-02-25T05:31:13.099Z,97342.72
2023-02-25T05:33:40.529Z,97346.97
2023-02-25T05:36:13.156Z,97354.63
2023-02-25T05:38:40.682Z,97345.69
2023-02-25T05:41:09.742Z,97344.75
2023-02-25T05:43:38.684Z,97338.13
2023-02-25T05:46:11.687Z,97339.25
2023-02-25T05:48:40.831Z,97344.88
2023-02-25T05:51:13.026Z,97341.63
2023-02-25T05:53:39.583Z,97353.78
2023-02-25T05:56:09.668Z,97352.75
2023-02-25T05:58:36.479Z,97355.84
2023-02-25T06:01:15.856Z,97348.72
2023-02-25T06:03:45.539Z,97344.22
2023-02-25T06:06:15.319Z,97346.25
2023-02-25T06:08:45.776Z,97354.41
2023-02-25T06:11:18.674Z,97362.22
2023-02-25T06:13:46.970Z,97364.25
2023-02-25T06:16:14.625Z,97365.09
2023-02-25T06:18:41.241Z,97363.66
2023-02-25T06:21:11.203Z,97370.06
2023-02-25T06:23:40.892Z,97371.25
2023-02-25T06:26:09.946Z,97368.38
2023-02-25T06:28:36.526Z,97375.75
2023-02-25T06:31:06.490Z,97379.00
2023-02-25T06:33:32.944Z,97382.03
2023-02-25T06:35:59.440Z,97388.72
2023-02-25T06:38:26.214Z,97388.09
2023-02-25T06:40:52.825Z,97397.09
2023-02-25T06:43:19.413Z,97393.53
2023-02-25T06:45:46.013Z,97393.22
2023-02-25T06:48:12.450Z,97404.09
2023-02-25T06:50:40.738Z,97407.50
2023-02-25T06:53:08.992Z,97415.69
2023-02-25T06:55:38.542Z,97414.09
2023-02-25T06:58:05.074Z,97426.03
2023-02-25T07:00:31.688Z,97406.88
2023-02-25T07:02:58.199Z,97412.47
2023-02-25T07:05:24.738Z,97412.41
2023-02-25T07:07:51.507Z,97424.16
2023-02-25T07:10:17.995Z,97419.59
2023-02-25T07:12:44.512Z,97420.31
2023-02-25T07:15:11.179Z,97436.44
2023-02-25T07:17:37.751Z,97436.91
2023-02-25T07:20:04.663Z,97438.53
2023-02-25T07:22:31.132Z,97435.28
2023-02-25T07:24:57.665Z,97443.22
2023-02-25T07:27:24.890Z,97441.19
2023-02-25T07:29:51.406Z,97436.91
2023-02-25T07:32:17.997Z,97438.38
2023-02-25T07:34:44.678Z,97437.56
2023-02-25T07:37:12.546Z,97442.19
2023-02-25T07:39:39.074Z,97446.25
2023-02-25T07:42:05.552Z,97443.72
2023-02-25T07:44:32.011Z,97448.19
2023-02-25T07:46:58.433Z,97445.50
2023-02-25T07:49:24.889Z,97449.78
2023-02-25T07:51:51.322Z,97440.97
2023-02-25T07:54:21.014Z,97446.25
2023-02-25T07:56:50.789Z,97443.97
2023-02-25T07:59:18.832Z,97442.28
2023-02-25T08:01:45.544Z,97437.56
2023-02-25T08:04:12.154Z,97431.88
2023-02-25T08:06:41.438Z,97449.69
2023-02-25T08:09:12.154Z,97439.25
2023-02-25T08:11:40.144Z,97443.97
2023-02-25T08:14:07.125Z,97446.69
2023-02-25T08:16:34.244Z,97451.22
2023-02-25T08:19:01.826Z,97452.53
2023-02-25T08:21:28.411Z,97445.41
2023-02-25T08:23:54.975Z,97451.09
2023-02-25T08:26:23.445Z,97447.00
2023-02-25T08:28:51.572Z,97453.34
2023-02-25T08:31:19.135Z,97454.28
2023-02-25T08:33:49.322Z,97449.66
2023-02-25T08:36:23.264Z,97452.81
2023-02-25T08:38:51.697Z,97456.91
2023-02-25T08:41:21.454Z,97451.31
2023-02-25T08:43:56.672Z,97447.41
2023-02-25T08:46:26.189Z,97447.31
2023-02-25T08:48:54.438Z,97446.47
2023-02-25T08:51:24.588Z,97455.59
2023-02-25T08:53:52.180Z,97460.25
2023-02-25T08:56:18.725Z,97465.47
2023-02-25T08:58:45.367Z,97465.47
2023-02-25T09:01:17.749Z,97470.69
2023-02-25T09:03:54.169Z,97478.41
2023-02-25T09:06:27.956Z,97477.28
2023-02-25T09:08:56.634Z,97482.31
2023-02-25T09:11:25.374Z,97491.44
2023-02-25T09:13:54.591Z,97488.56
2023-02-25T09:16:21.263Z,97482.50
2023-02-25T09:18:50.317Z,97489.03
2023-02-25T09:21:18.689Z,97490.78
2023-02-25T09:23:46.826Z,97499.00
2023-02-25T09:26:14.244Z,97519.19
2023-02-25T09:28:40.766Z,97520.94
2023-02-25T09:31:07.469Z,97522.97
2023-02-25T09:33:36.451Z,97522.97
2023-02-25T09:36:10.676Z,97518.22
2023-02-25T09:38:39.360Z,97526.66
2023-02-25T09:41:30.267Z,97531.31
2023-02-25T09:44:15.267Z,97532.16
2023-02-25T09:46:52.521Z,97535.53
2023-02-25T09:49:58.259Z,97524.19
2023-02-25T09:52:49.729Z,97520.50
2023-02-25T09:55:23.846Z,97530.91
2023-02-25T09:58:26.511Z,97529.25
2023-02-25T10:01:06.036Z,97537.31
2023-02-25T10:03:42.343Z,97534.84
2023-02-25T10:06:24.648Z,97536.50
2023-02-25T10:09:02.816Z,97537.13
2023-02-25T10:11:46.180Z,97531.94
2023-02-25T10:15:19.323Z,97535.41
2023-02-25T10:18:13.905Z,97536.31
2023-02-25T10:21:04.029Z,97546.34
2023-02-25T10:23:42.544Z,97548.78
2023-02-25T10:26:24.633Z,97550.56
2023-02-25T10:29:00.306Z,97547.38
2023-02-25T10:31:29.725Z,97550.09
2023-02-25T10:34:03.948Z,97556.88
2023-02-25T10:36:39.464Z,97554.94
2023-02-25T10:39:06.308Z,97547.66
2023-02-25T10:41:32.866Z,97540.72
2023-02-25T10:43:59.337Z,97552.09
2023-02-25T10:46:58.932Z,97550.75
2023-02-25T10:49:28.750Z,97556.75
2023-02-25T10:52:10.121Z,97564.28
2023-02-25T10:54:53.194Z,97565.47
2023-02-25T10:57:41.448Z,97568.25
2023-02-25T11:00:28.973Z,97563.75
2023-02-25T11:02:58.169Z,97570.50
2023-02-25T11:05:42.062Z,97569.53
2023-02-25T11:08:30.025Z,97565.72
2023-02-25T11:11:21.842Z,97570.16
2023-02-25T11:14:09.734Z,97571.84
2023-02-25T11:16:40.343Z,97576.34
2023-02-25T11:19:38.619Z,97565.63
2023-02-25T11:22:18.243Z,97558.81
2023-02-25T11:25:00.642Z,97564.16
2023-02-25T11:27:41.600Z,97575.44
2023-02-25T11:30:14.125Z,97570.31
2023-02-25T11:32:48.921Z,97572.91
2023-02-25T11:35:31.189Z,97571.69
2023-02-25T11:38:12.282Z,97583.03
2023-02-25T11:40:45.287Z,97573.53
2023-02-25T11:46:24.997Z,97560.19
2023-02-25T11:49:00.258Z,97558.03
2023-02-25T11:51:47.006Z,97554.19
2023-02-25T11:54:38.774Z,97549.19
2023-02-25T11:57:14.678Z,97559.41
2023-02-25T12:00:19.324Z,97568.84
2023-02-25T12:03:13.325Z,97566.53
2023-02-25T12:06:11.582Z,97587.44
2023-02-25T12:08:59.683Z,97565.69
2023-02-25T12:12:18.879Z,97575.13
2023-02-25T12:15:23.932Z,97569.44
2023-02-25T12:18:11.980Z,97581.56
2023-02-25T12:21:16.694Z,97586.38
2023-02-25T12:24:19.634Z,97589.19
2023-02-25T12:27:21.803Z,97595.34
2023-02-25T12:30:54.445Z,97594.50
2023-02-25T12:34:11.298Z,97601.84
2023-02-25T12:37:19.252Z,97593.38
2023-02-25T12:40:38.270Z,97618.56
2023-02-25T12:43:44.936Z,97594.84
2023-02-25T12:46:27.634Z,97610.31
2023-02-25T12:49:34.951Z,97601.38
2023-02-25T12:52:42.575Z,97610.19
2023-02-25T12:55:46.633Z,97633.09
2023-02-25T12:58:30.316Z,97618.94
2023-02-25T13:01:18.876Z,97627.81
2023-02-25T13:04:42.496Z,97620.22
2023-02-25T13:07:24.275Z,97620.59
2023-02-25T13:10:20.177Z,97618.88
2023-02-25T13:13:33.563Z,97598.69
2023-02-25T13:16:31.818Z,97602.94
2023-02-25T13:19:39.492Z,97596.41
2023-02-25T13:22:43.278Z,97608.59
2023-02-25T13:26:06.646Z,97619.63
2023-02-25T13:29:12.793Z,97608.41
2023-02-25T13:32:07.870Z,97607.88
2023-02-25T13:34:52.036Z,97609.19
2023-02-25T13:37:41.710Z,97604.50
2023-02-25T13:40:37.258Z,97608.34
2023-02-25T13:43:29.606Z,97645.56
2023-02-25T13:46:37.695Z,97662.03
2023-02-25T13:49:13.030Z,97627.63
2023-02-25T13:52:09.507Z,97629.13
2023-02-25T13:54:53.999Z,97645.16
2023-02-25T13:58:02.933Z,97651.56
2023-02-25T14:00:47.932Z,97651.47
2023-02-25T14:03:53.799Z,97656.09
2023-02-25T14:06:26.205Z,97648.06
2023-02-25T14:09:21.925Z,97646.13
2023-02-25T14:12:22.551Z,97645.66
2023-02-25T14:15:19.951Z,97653.78
2023-02-25T14:18:04.833Z,97661.88
2023-02-25T14:20:44.094Z,97649.13
2023-02-25T14:23:47.996Z,97659.91
2023-02-25T14:26:35.632Z,97654.25
2023-02-25T14:29:48.606Z,97655.16
2023-02-25T14:32:47.600Z,97676.16
2023-02-25T14:35:16.964Z,97654.06
2023-02-25T14:38:07.410Z,97674.06
2023-02-25T14:41:01.766Z,97681.16
2023-02-25T14:43:33.790Z,97667.41
2023-02-25T14:46:30.796Z,97674.88
2023-02-25T14:49:38.288Z,97684.16
2023-02-25T14:52:32.367Z,97683.47
2023-02-25T14:55:29.241Z,97687.56
2023-02-25T14:58:36.845Z,97682.19
2023-02-25T15:01:39.832Z,97688.69
2023-02-25T15:04:42.213Z,97693.16
2023-02-25T15:07:29.944Z,97700.75
2023-02-25T15:10:25.673Z,97715.97
2023-02-25T15:14:04.318Z,97707.69
2023-02-25T15:17:13.777Z,97710.03
2023-02-25T15:20:38.666Z,97724.91
2023-02-25T15:23:14.188Z,97733.88
2023-02-25T15:26:21.763Z,97722.50
2023-02-25T15:28:52.189Z,97746.38
2023-02-25T15:31:33.773Z,97731.69
2023-02-25T15:34:22.725Z,97728.50
2023-02-25T15:36:51.783Z,97742.50
2023-02-25T15:39:50.947Z,97746.19
2023-02-25T15:42:49.650Z,97758.88
2023-02-25T15:45:28.524Z,97762.84
2023-02-25T15:48:06.993Z,97757.09
2023-02-25T15:50:42.549Z,97760.56
2023-02-25T15:53:20.853Z,97760.41
2023-02-25T15:55:50.174Z,97771.31
2023-02-25T15:58:25.546Z,97775.16
2023-02-25T16:01:07.142Z,97790.53
2023-02-25T16:03:36.411Z,97777.13
2023-02-25T16:06:12.462Z,97776.47
2023-02-25T16:08:49.344Z,97788.56
2023-02-25T16:11:49.316Z,97790.16
2023-02-25T16:14:26.145Z,97800.94
2023-02-25T16:17:19.991Z,97803.09
2023-02-25T16:19:59.110Z,97794.28
2023-02-25T16:22:29.875Z,97804.00
2023-02-25T16:25:01.622Z,97806.28
2023-02-25T16:27:52.845Z,97814.69
2023-02-25T16:30:44.434Z,97823.69
2023-02-25T16:33:46.720Z,97820.88
2023-02-25T16:36:39.578Z,97825.41
2023-02-25T16:39:18.464Z,97837.16
2023-02-25T16:41:45.341Z,97840.34
2023-02-25T16:44:39.590Z,97854.75
2023-02-25T16:47:30.502Z,97855.25
2023-02-25T16:50:01.468Z,97854.59
2023-02-25T16:52:40.274Z,97867.22
2023-02-25T16:55:12.634Z,97871.69
2023-02-25T16:57:39.482Z,97865.91
2023-02-25T17:00:20.083Z,97864.50
2023-02-25T17:02:52.532Z,97886.41
2023-02-25T17:05:32.486Z,97885.31
2023-02-25T17:08:14.664Z,97883.69
2023-02-25T17:10:49.745Z,97892.53
2023-02-25T17:13:26.257Z,97887.72
2023-02-25T17:15:54.088Z,97891.75
2023-02-25T17:18:53.411Z,97900.63
2023-02-25T17:21:29.444Z,97904.03
2023-02-25T17:24:00.259Z,97903.31
2023-02-25T17:26:27.978Z,97910.97
2023-02-25T17:29:00.236Z,97917.31
2023-02-25T17:31:30.223Z,97919.84
2023-02-25T17:34:01.091Z,97929.72
2023-02-25T17:36:33.010Z,97933.03
2023-02-25T17:39:20.618Z,97935.47
2023-02-25T17:41:48.577Z,97945.16
2023-02-25T17:44:37.566Z,97938.97
2023-02-25T17:47:08.011Z,97941.13
2023-02-25T17:49:37.583Z,97947.94
2023-02-25T17:52:07.985Z,97944.69
2023-02-25T17:54:38.090Z,97953.91
2023-02-25T17:57:18.887Z,97958.66
2023-02-25T18:00:00.331Z,97966.47
2023-02-25T18:02:37.502Z,97965.53
2023-02-25T18:05:12.852Z,97969.88
2023-02-25T18:07:59.891Z,97974.41
2023-02-25T18:10:26.270Z,97986.59
2023-02-25T18:12:55.380Z,97983.06
2023-02-25T18:15:30.831Z,97980.94
2023-02-25T18:18:01.409Z,97987.00
2023-02-25T18:20:38.304Z,97999.50
2023-02-25T18:23:15.231Z,97993.28
2023-02-25T18:25:45.252Z,98003.16
2023-02-25T18:28:21.449Z,97998.34
2023-02-25T18:30:50.644Z,97996.97
2023-02-25T18:33:18.523Z,98005.41
2023-02-25T18:35:48.080Z,98010.38
2023-02-25T18:38:20.586Z,98010.59
2023-02-25T18:40:49.970Z,98014.22
2023-02-25T18:43:19.933Z,98015.00
2023-02-25T18:45:47.216Z,98014.00
2023-02-25T18:48:14.051Z,98023.47
2023-02-25T18:50:44.269Z,98026.81
2023-02-25T18:53:25.507Z,98029.94
2023-02-25T18:55:54.303Z,98023.91
2023-02-25T18:58:21.765Z,98025.47
2023-02-25T19:00:53.624Z,98032.78
2023-02-25T19:03:33.655Z,98044.84
2023-02-25T19:06:00.935Z,98045.69
2023-02-25T19:08:27.650Z,98048.44
2023-02-25T19:10:54.468Z,98047.53
2023-02-25T19:13:33.431Z,98051.94
2023-02-25T19:16:00.238Z,98047.91
2023-02-25T19:18:26.792Z,98055.09
2023-02-25T19:20:53.316Z,98055.09
2023-02-25T19:23:20.592Z,98056.25
2023-02-25T19:25:54.979Z,98053.88
2023-02-25T19:28:21.750Z,98059.31
2023-02-25T19:30:48.818Z,98072.09
2023-02-25T19:33:15.705Z,98074.88
2023-02-25T19:35:43.894Z,98076.78
2023-02-25T19:38:17.839Z,98079.44
2023-02-25T19:40:46.488Z,98087.72
2023-02-25T19:43:13.757Z,98085.97
2023-02-25T19:45:41.440Z,98088.31
2023-02-25T19:48:08.576Z,98085.22
2023-02-25T19:50:36.893Z,98095.72
2023-02-25T19:53:05.647Z,98095.16
2023-02-25T19:55:33.223Z,98096.97
2023-02-25T19:57:59.762Z,98097.94
2023-02-25T20:00:26.876Z,98100.72
2023-02-25T20:02:53.955Z,98106.22
2023-02-25T20:05:22.603Z,98105.44
2023-02-25T20:07:49.634Z,98115.50
2023-02-25T20:10:19.917Z,98111.13
2023-02-25T20:12:47.290Z,98117.00
2023-02-25T20:15:15.510Z,98113.66
2023-02-25T20:17:45.102Z,98119.06
2023-02-25T20:20:14.562Z,98119.75
2023-02-25T20:22:41.998Z,98117.16
2023-02-25T20:25:10.394Z,98121.88
2023-02-25T20:27:39.590Z,98127.75
2023-02-25T20:30:07.338Z,98136.41
2023-02-25T20:32:34.741Z,98137.31
2023-02-25T20:35:02.179Z,98139.06
2023-02-25T20:37:38.895Z,98139.44
2023-02-25T20:40:08.252Z,98135.03
2023-02-25T20:42:35.329Z,98134.66
2023-02-25T20:45:02.384Z,98133.75
2023-02-25T20:47:34.960Z,98134.66
2023-02-25T20:50:02.484Z,98141.34
2023-02-25T20:52:29.166Z,98151.63
2023-02-25T20:54:56.285Z,98146.66
2023-02-25T20:57:26.580Z,98150.31
2023-02-25T20:59:54.248Z,98145.81
2023-02-25T21:02:22.122Z,98150.31
2023-02-25T21:04:49.058Z,98150.31
2023-02-25T21:07:15.958Z,98151.16
2023-02-25T21:09:42.447Z,98151.09
2023-02-25T21:12:09.383Z,98151.06
2023-02-25T21:14:35.953Z,98157.19
2023-02-25T21:17:02.885Z,98156.00
2023-02-25T21:19:29.461Z,98155.72
2023-02-25T21:21:56.327Z,98157.25
2023-02-25T21:24:23.536Z,98160.81
2023-02-25T21:26:50.086Z,98164.22
2023-02-25T21:29:16.644Z,98168.78
2023-02-25T21:31:43.826Z,98171.66
2023-02-25T21:34:13.912Z,98171.91
2023-02-25T21:36:41.454Z,98173.72
2023-02-25T21:39:09.630Z,98172.69
2023-02-25T21:41:44.269Z,98177.28
2023-02-25T21:44:12.295Z,98173.16
2023-02-25T21:46:39.470Z,98178.97
2023-02-25T21:49:06.044Z,98183.88
2023-02-25T21:51:32.526Z,98178.06
2023-02-25T21:54:01.278Z,98181.56
2023-02-25T21:56:29.706Z,98191.72
2023-02-25T21:59:03.196Z,98185.13
2023-02-25T22:01:34.356Z,98182.44
2023-02-25T22:04:01.586Z,98191.19
2023-02-25T22:06:28.654Z,98194.47
2023-02-25T22:08:55.672Z,98191.00
2023-02-25T22:11:35.284Z,98184.84
2023-02-25T22:14:05.536Z,98187.22
2023-02-25T22:16:33.445Z,98190.66
2023-02-25T22:19:00.454Z,98197.56
2023-02-25T22:21:32.789Z,98193.63
2023-02-25T22:24:03.339Z,98184.84
2023-02-25T22:26:33.867Z,98181.47
2023-02-25T22:29:06.605Z,98193.00
2023-02-25T22:31:34.860Z,98194.88
2023-02-25T22:34:02.819Z,98195.66
2023-02-25T22:36:29.296Z,98193.84
2023-02-25T22:38:56.535Z,98199.56
2023-02-25T22:41:25.789Z,98191.38
2023-02-25T22:43:52.884Z,98194.63
2023-02-25T22:46:27.943Z,98200.69
2023-02-25T22:48:55.812Z,98199.97
2023-02-25T22:51:25.484Z,98201.72
2023-02-25T22:53:53.240Z,98204.25
2023-02-25T22:56:20.618Z,98205.16
2023-02-25T22:58:47.457Z,98204.31
2023-02-25T23:01:19.242Z,98212.00
2023-02-25T23:03:47.865Z,98216.28
2023-02-25T23:06:17.753Z,98219.28
2023-02-25T23:08:44.877Z,98220.06
2023-02-25T23:11:16.825Z,98220.91
2023-02-25T23:13:47.414Z,98212.03
2023-02-25T23:16:21.003Z,98218.44
2023-02-25T23:18:49.048Z,98213.56
2023-02-25T23:21:18.929Z,98223.56
2023-02-25T23:23:51.810Z,98222.63
2023-02-25T23:26:25.934Z,98224.44
2023-02-25T23:28:58.559Z,98217.38
2023-02-25T23:31:30.081Z,98223.47
2023-02-25T23:34:03.165Z,98228.72
2023-02-25T23:36:30.214Z,98215.66
2023-02-25T23:39:01.076Z,98225.84
2023-02-25T23:41:29.400Z,98227.53
2023-02-25T23:44:00.446Z,98223.56
2023-02-25T23:46:30.449Z,98227.66
2023-02-25T23:49:00.301Z,98234.44
2023-02-25T23:51:28.254Z,98228.34
2023-02-25T23:53:58.695Z,98231.34
2023-02-25T23:56:29.177Z,98229.88
2023-02-25T23:58:56.262Z,98231.06
